sensor_id;sensor_type;location;lat;lon;timestamp;P1;durP1;ratioP1;P2;durP2;ratioP2
16804;SDS011;8520;50.102;20.010;2023-02-28T00:01:29;15.77;;;14.07;;
16804;SDS011;8520;50.102;20.010;2023-02-28T00:03:59;16.37;;;14.67;;
16804;SDS011;8520;50.102;20.010;2023-02-28T00:06:28;15.53;;;14.03;;
16804;SDS011;8520;50.102;20.010;2023-02-28T00:08:56;15.60;;;14.00;;
16804;SDS011;8520;50.102;20.010;2023-02-28T00:11:24;15.40;;;13.90;;
16804;SDS011;8520;50.102;20.010;2023-02-28T00:13:53;15.97;;;14.27;;
16804;SDS011;8520;50.102;20.010;2023-02-28T00:16:22;15.37;;;13.90;;
16804;SDS011;8520;50.102;20.010;2023-02-28T00:18:50;16.53;;;14.83;;
16804;SDS011;8520;50.102;20.010;2023-02-28T00:21:18;16.53;;;14.70;;
16804;SDS011;8520;50.102;20.010;2023-02-28T00:23:48;16.30;;;14.70;;
16804;SDS011;8520;50.102;20.010;2023-02-28T00:26:17;17.83;;;15.97;;
16804;SDS011;8520;50.102;20.010;2023-02-28T00:28:48;16.33;;;14.80;;
16804;SDS011;8520;50.102;20.010;2023-02-28T00:31:16;15.53;;;13.97;;
16804;SDS011;8520;50.102;20.010;2023-02-28T00:33:47;15.63;;;14.13;;
16804;SDS011;8520;50.102;20.010;2023-02-28T00:36:15;17.43;;;15.63;;
16804;SDS011;8520;50.102;20.010;2023-02-28T00:38:43;17.13;;;15.37;;
16804;SDS011;8520;50.102;20.010;2023-02-28T00:41:13;19.77;;;17.67;;
16804;SDS011;8520;50.102;20.010;2023-02-28T00:43:41;18.53;;;16.63;;
16804;SDS011;8520;50.102;20.010;2023-02-28T00:46:10;19.07;;;17.03;;
16804;SDS011;8520;50.102;20.010;2023-02-28T00:48:38;18.90;;;17.00;;
16804;SDS011;8520;50.102;20.010;2023-02-28T00:51:06;18.97;;;17.07;;
16804;SDS011;8520;50.102;20.010;2023-02-28T00:53:34;17.53;;;15.73;;
16804;SDS011;8520;50.102;20.010;2023-02-28T00:56:02;17.07;;;15.37;;
16804;SDS011;8520;50.102;20.010;2023-02-28T00:58:32;18.33;;;16.43;;
16804;SDS011;8520;50.102;20.010;2023-02-28T01:01:00;17.90;;;16.00;;
16804;SDS011;8520;50.102;20.010;2023-02-28T01:03:28;16.40;;;14.70;;
16804;SDS011;8520;50.102;20.010;2023-02-28T01:05:57;17.13;;;15.43;;
16804;SDS011;8520;50.102;20.010;2023-02-28T01:08:25;17.03;;;15.23;;
16804;SDS011;8520;50.102;20.010;2023-02-28T01:10:54;17.30;;;15.67;;
16804;SDS011;8520;50.102;20.010;2023-02-28T01:13:23;16.40;;;14.90;;
16804;SDS011;8520;50.102;20.010;2023-02-28T01:15:54;17.97;;;16.13;;
16804;SDS011;8520;50.102;20.010;2023-02-28T01:18:23;17.57;;;15.93;;
16804;SDS011;8520;50.102;20.010;2023-02-28T01:20:52;17.43;;;15.70;;
16804;SDS011;8520;50.102;20.010;2023-02-28T01:23:21;17.83;;;15.93;;
16804;SDS011;8520;50.102;20.010;2023-02-28T01:25:50;17.73;;;16.03;;
16804;SDS011;8520;50.102;20.010;2023-02-28T01:28:19;18.27;;;16.43;;
16804;SDS011;8520;50.102;20.010;2023-02-28T01:30:48;18.13;;;16.33;;
16804;SDS011;8520;50.102;20.010;2023-02-28T01:33:19;17.50;;;15.80;;
16804;SDS011;8520;50.102;20.010;2023-02-28T01:35:47;17.53;;;15.60;;
16804;SDS011;8520;50.102;20.010;2023-02-28T01:38:15;18.20;;;15.63;;
16804;SDS011;8520;50.102;20.010;2023-02-28T01:40:49;17.83;;;16.13;;
16804;SDS011;8520;50.102;20.010;2023-02-28T01:43:20;18.57;;;16.13;;
16804;SDS011;8520;50.102;20.010;2023-02-28T01:45:50;18.70;;;16.80;;
16804;SDS011;8520;50.102;20.010;2023-02-28T01:48:22;21.67;;;18.10;;
16804;SDS011;8520;50.102;20.010;2023-02-28T01:50:54;21.10;;;18.73;;
16804;SDS011;8520;50.102;20.010;2023-02-28T01:53:28;19.87;;;17.87;;
16804;SDS011;8520;50.102;20.010;2023-02-28T01:56:00;23.13;;;19.63;;
16804;SDS011;8520;50.102;20.010;2023-02-28T01:58:31;23.37;;;19.53;;
16804;SDS011;8520;50.102;20.010;2023-02-28T02:01:00;23.90;;;19.27;;
16804;SDS011;8520;50.102;20.010;2023-02-28T02:03:30;21.90;;;19.70;;
16804;SDS011;8520;50.102;20.010;2023-02-28T02:05:58;26.50;;;21.70;;
16804;SDS011;8520;50.102;20.010;2023-02-28T02:08:28;24.37;;;21.23;;
16804;SDS011;8520;50.102;20.010;2023-02-28T02:10:57;25.83;;;21.77;;
16804;SDS011;8520;50.102;20.010;2023-02-28T02:13:36;22.67;;;20.27;;
16804;SDS011;8520;50.102;20.010;2023-02-28T02:16:20;26.47;;;22.93;;
16804;SDS011;8520;50.102;20.010;2023-02-28T02:19:01;27.13;;;23.03;;
16804;SDS011;8520;50.102;20.010;2023-02-28T02:21:48;28.13;;;23.43;;
16804;SDS011;8520;50.102;20.010;2023-02-28T02:30:48;24.97;;;22.33;;
16804;SDS011;8520;50.102;20.010;2023-02-28T02:36:53;26.90;;;22.90;;
16804;SDS011;8520;50.102;20.010;2023-02-28T02:39:31;27.40;;;22.33;;
16804;SDS011;8520;50.102;20.010;2023-02-28T02:42:11;24.77;;;22.20;;
16804;SDS011;8520;50.102;20.010;2023-02-28T02:44:43;22.53;;;20.27;;
16804;SDS011;8520;50.102;20.010;2023-02-28T02:47:17;21.93;;;19.73;;
16804;SDS011;8520;50.102;20.010;2023-02-28T02:49:49;23.07;;;20.67;;
16804;SDS011;8520;50.102;20.010;2023-02-28T02:52:22;21.73;;;19.53;;
16804;SDS011;8520;50.102;20.010;2023-02-28T02:54:55;22.60;;;20.20;;
16804;SDS011;8520;50.102;20.010;2023-02-28T02:57:27;21.77;;;19.60;;
16804;SDS011;8520;50.102;20.010;2023-02-28T03:00:00;22.27;;;20.07;;
16804;SDS011;8520;50.102;20.010;2023-02-28T03:02:31;21.30;;;19.10;;
16804;SDS011;8520;50.102;20.010;2023-02-28T03:05:01;23.03;;;19.43;;
16804;SDS011;8520;50.102;20.010;2023-02-28T03:07:34;21.67;;;19.47;;
16804;SDS011;8520;50.102;20.010;2023-02-28T03:10:03;21.80;;;19.60;;
16804;SDS011;8520;50.102;20.010;2023-02-28T03:12:48;21.30;;;19.23;;
16804;SDS011;8520;50.102;20.010;2023-02-28T03:15:32;23.27;;;20.97;;
16804;SDS011;8520;50.102;20.010;2023-02-28T03:18:14;23.40;;;21.10;;
16804;SDS011;8520;50.102;20.010;2023-02-28T03:20:52;23.40;;;20.90;;
16804;SDS011;8520;50.102;20.010;2023-02-28T03:23:29;23.67;;;21.37;;
16804;SDS011;8520;50.102;20.010;2023-02-28T03:26:07;23.90;;;21.43;;
16804;SDS011;8520;50.102;20.010;2023-02-28T03:28:46;24.60;;;22.20;;
16804;SDS011;8520;50.102;20.010;2023-02-28T03:31:21;24.60;;;22.03;;
16804;SDS011;8520;50.102;20.010;2023-02-28T03:33:55;24.40;;;22.00;;
16804;SDS011;8520;50.102;20.010;2023-02-28T03:36:30;24.73;;;22.13;;
16804;SDS011;8520;50.102;20.010;2023-02-28T03:39:10;24.50;;;22.20;;
16804;SDS011;8520;50.102;20.010;2023-02-28T03:41:42;25.40;;;22.63;;
16804;SDS011;8520;50.102;20.010;2023-02-28T03:44:16;24.20;;;21.83;;
16804;SDS011;8520;50.102;20.010;2023-02-28T03:46:51;26.70;;;23.97;;
16804;SDS011;8520;50.102;20.010;2023-02-28T03:49:29;25.17;;;22.83;;
16804;SDS011;8520;50.102;20.010;2023-02-28T03:52:01;24.53;;;22.27;;
16804;SDS011;8520;50.102;20.010;2023-02-28T03:54:33;25.00;;;22.67;;
16804;SDS011;8520;50.102;20.010;2023-02-28T03:57:07;25.90;;;23.37;;
16804;SDS011;8520;50.102;20.010;2023-02-28T03:59:44;26.33;;;23.83;;
16804;SDS011;8520;50.102;20.010;2023-02-28T04:02:16;25.37;;;22.97;;
16804;SDS011;8520;50.102;20.010;2023-02-28T04:04:44;24.57;;;22.37;;
16804;SDS011;8520;50.102;20.010;2023-02-28T04:07:15;26.63;;;24.07;;
16804;SDS011;8520;50.102;20.010;2023-02-28T04:09:44;26.10;;;23.70;;
16804;SDS011;8520;50.102;20.010;2023-02-28T04:12:13;26.40;;;23.83;;
16804;SDS011;8520;50.102;20.010;2023-02-28T04:14:41;26.27;;;23.63;;
16804;SDS011;8520;50.102;20.010;2023-02-28T04:17:09;26.43;;;23.77;;
16804;SDS011;8520;50.102;20.010;2023-02-28T04:19:37;26.77;;;24.23;;
16804;SDS011;8520;50.102;20.010;2023-02-28T04:22:05;26.13;;;23.73;;
16804;SDS011;8520;50.102;20.010;2023-02-28T04:24:33;26.07;;;23.67;;
16804;SDS011;8520;50.102;20.010;2023-02-28T04:27:03;26.53;;;24.13;;
16804;SDS011;8520;50.102;20.010;2023-02-28T04:29:31;26.27;;;23.77;;
16804;SDS011;8520;50.102;20.010;2023-02-28T04:32:00;26.70;;;24.27;;
16804;SDS011;8520;50.102;20.010;2023-02-28T04:34:30;27.17;;;24.63;;
16804;SDS011;8520;50.102;20.010;2023-02-28T04:36:59;28.00;;;25.27;;
16804;SDS011;8520;50.102;20.010;2023-02-28T04:39:39;26.57;;;24.03;;
16804;SDS011;8520;50.102;20.010;2023-02-28T04:42:09;25.50;;;23.07;;
16804;SDS011;8520;50.102;20.010;2023-02-28T04:44:37;25.83;;;23.43;;
16804;SDS011;8520;50.102;20.010;2023-02-28T04:47:06;26.07;;;23.70;;
16804;SDS011;8520;50.102;20.010;2023-02-28T04:49:34;25.70;;;23.33;;
16804;SDS011;8520;50.102;20.010;2023-02-28T04:52:02;26.37;;;24.07;;
16804;SDS011;8520;50.102;20.010;2023-02-28T04:54:30;27.30;;;24.80;;
16804;SDS011;8520;50.102;20.010;2023-02-28T04:56:58;27.07;;;24.50;;
16804;SDS011;8520;50.102;20.010;2023-02-28T04:59:29;28.20;;;25.60;;
16804;SDS011;8520;50.102;20.010;2023-02-28T05:01:57;27.47;;;24.93;;
16804;SDS011;8520;50.102;20.010;2023-02-28T05:04:25;27.73;;;25.07;;
16804;SDS011;8520;50.102;20.010;2023-02-28T05:06:53;28.17;;;25.47;;
16804;SDS011;8520;50.102;20.010;2023-02-28T05:09:21;28.63;;;25.63;;
16804;SDS011;8520;50.102;20.010;2023-02-28T05:11:49;28.10;;;25.40;;
16804;SDS011;8520;50.102;20.010;2023-02-28T05:14:18;28.47;;;25.87;;
16804;SDS011;8520;50.102;20.010;2023-02-28T05:16:47;28.30;;;25.67;;
16804;SDS011;8520;50.102;20.010;2023-02-28T05:19:15;28.43;;;25.70;;
16804;SDS011;8520;50.102;20.010;2023-02-28T05:21:48;28.30;;;25.70;;
16804;SDS011;8520;50.102;20.010;2023-02-28T05:24:18;28.20;;;25.67;;
16804;SDS011;8520;50.102;20.010;2023-02-28T05:26:49;27.67;;;25.10;;
16804;SDS011;8520;50.102;20.010;2023-02-28T05:29:19;27.53;;;24.77;;
16804;SDS011;8520;50.102;20.010;2023-02-28T05:31:48;27.97;;;25.30;;
16804;SDS011;8520;50.102;20.010;2023-02-28T05:34:17;27.57;;;24.93;;
16804;SDS011;8520;50.102;20.010;2023-02-28T05:36:45;28.00;;;25.40;;
16804;SDS011;8520;50.102;20.010;2023-02-28T05:39:13;27.93;;;25.30;;
16804;SDS011;8520;50.102;20.010;2023-02-28T05:41:42;26.87;;;24.57;;
16804;SDS011;8520;50.102;20.010;2023-02-28T05:44:11;27.43;;;24.93;;
16804;SDS011;8520;50.102;20.010;2023-02-28T05:46:39;27.43;;;24.77;;
16804;SDS011;8520;50.102;20.010;2023-02-28T05:49:08;26.57;;;24.20;;
16804;SDS011;8520;50.102;20.010;2023-02-28T05:51:36;28.10;;;25.47;;
16804;SDS011;8520;50.102;20.010;2023-02-28T05:54:06;26.93;;;24.57;;
16804;SDS011;8520;50.102;20.010;2023-02-28T05:56:35;26.50;;;23.83;;
16804;SDS011;8520;50.102;20.010;2023-02-28T05:59:05;27.27;;;24.57;;
16804;SDS011;8520;50.102;20.010;2023-02-28T06:01:34;27.37;;;24.87;;
16804;SDS011;8520;50.102;20.010;2023-02-28T06:04:04;26.23;;;23.93;;
16804;SDS011;8520;50.102;20.010;2023-02-28T06:06:46;26.87;;;24.37;;
16804;SDS011;8520;50.102;20.010;2023-02-28T06:09:15;27.57;;;24.97;;
16804;SDS011;8520;50.102;20.010;2023-02-28T06:11:43;28.37;;;25.70;;
16804;SDS011;8520;50.102;20.010;2023-02-28T06:14:12;26.83;;;24.43;;
16804;SDS011;8520;50.102;20.010;2023-02-28T06:16:43;29.67;;;26.87;;
16804;SDS011;8520;50.102;20.010;2023-02-28T06:19:11;28.67;;;25.87;;
16804;SDS011;8520;50.102;20.010;2023-02-28T06:21:41;29.10;;;26.40;;
16804;SDS011;8520;50.102;20.010;2023-02-28T06:24:11;30.37;;;27.37;;
16804;SDS011;8520;50.102;20.010;2023-02-28T06:26:39;30.17;;;27.30;;
16804;SDS011;8520;50.102;20.010;2023-02-28T06:29:07;30.47;;;27.20;;
16804;SDS011;8520;50.102;20.010;2023-02-28T06:31:35;30.27;;;27.07;;
16804;SDS011;8520;50.102;20.010;2023-02-28T06:34:04;30.87;;;28.00;;
16804;SDS011;8520;50.102;20.010;2023-02-28T06:36:33;31.43;;;28.37;;
16804;SDS011;8520;50.102;20.010;2023-02-28T06:39:01;32.30;;;28.90;;
16804;SDS011;8520;50.102;20.010;2023-02-28T06:41:30;33.90;;;30.37;;
16804;SDS011;8520;50.102;20.010;2023-02-28T06:44:20;33.30;;;29.63;;
16804;SDS011;8520;50.102;20.010;2023-02-28T06:46:49;33.07;;;29.37;;
16804;SDS011;8520;50.102;20.010;2023-02-28T06:49:17;33.47;;;30.17;;
16804;SDS011;8520;50.102;20.010;2023-02-28T06:51:45;32.50;;;29.40;;
16804;SDS011;8520;50.102;20.010;2023-02-28T06:54:13;32.03;;;28.97;;
16804;SDS011;8520;50.102;20.010;2023-02-28T06:56:43;31.60;;;28.60;;
16804;SDS011;8520;50.102;20.010;2023-02-28T06:59:11;31.43;;;28.23;;
16804;SDS011;8520;50.102;20.010;2023-02-28T07:01:39;32.00;;;28.57;;
16804;SDS011;8520;50.102;20.010;2023-02-28T07:04:08;31.93;;;28.73;;
16804;SDS011;8520;50.102;20.010;2023-02-28T07:06:36;30.87;;;27.67;;
16804;SDS011;8520;50.102;20.010;2023-02-28T07:09:04;32.37;;;28.97;;
16804;SDS011;8520;50.102;20.010;2023-02-28T07:11:35;30.20;;;27.40;;
16804;SDS011;8520;50.102;20.010;2023-02-28T07:14:05;29.87;;;26.53;;
16804;SDS011;8520;50.102;20.010;2023-02-28T07:16:33;29.37;;;26.40;;
16804;SDS011;8520;50.102;20.010;2023-02-28T07:19:01;29.17;;;26.37;;
16804;SDS011;8520;50.102;20.010;2023-02-28T07:21:29;29.93;;;26.70;;
16804;SDS011;8520;50.102;20.010;2023-02-28T07:23:58;29.90;;;26.70;;
16804;SDS011;8520;50.102;20.010;2023-02-28T07:26:26;28.47;;;25.43;;
16804;SDS011;8520;50.102;20.010;2023-02-28T07:28:54;27.13;;;24.37;;
16804;SDS011;8520;50.102;20.010;2023-02-28T07:31:23;25.90;;;23.20;;
16804;SDS011;8520;50.102;20.010;2023-02-28T07:33:51;24.67;;;22.00;;
16804;SDS011;8520;50.102;20.010;2023-02-28T07:36:20;24.90;;;22.30;;
16804;SDS011;8520;50.102;20.010;2023-02-28T07:38:48;23.87;;;21.57;;
16804;SDS011;8520;50.102;20.010;2023-02-28T07:41:17;23.53;;;21.03;;
16804;SDS011;8520;50.102;20.010;2023-02-28T07:43:47;23.73;;;20.90;;
16804;SDS011;8520;50.102;20.010;2023-02-28T07:46:15;21.87;;;19.57;;
16804;SDS011;8520;50.102;20.010;2023-02-28T07:48:48;21.30;;;19.33;;
16804;SDS011;8520;50.102;20.010;2023-02-28T07:51:16;23.70;;;19.67;;
16804;SDS011;8520;50.102;20.010;2023-02-28T07:53:44;20.93;;;18.83;;
16804;SDS011;8520;50.102;20.010;2023-02-28T07:56:12;21.93;;;19.60;;
16804;SDS011;8520;50.102;20.010;2023-02-28T07:58:40;17.93;;;16.17;;
16804;SDS011;8520;50.102;20.010;2023-02-28T08:01:09;17.13;;;15.50;;
16804;SDS011;8520;50.102;20.010;2023-02-28T08:03:38;16.70;;;15.20;;
16804;SDS011;8520;50.102;20.010;2023-02-28T08:06:14;16.03;;;14.60;;
16804;SDS011;8520;50.102;20.010;2023-02-28T08:08:44;14.90;;;13.60;;
16804;SDS011;8520;50.102;20.010;2023-02-28T08:11:12;14.73;;;13.43;;
16804;SDS011;8520;50.102;20.010;2023-02-28T08:13:40;15.33;;;14.03;;
16804;SDS011;8520;50.102;20.010;2023-02-28T08:16:10;13.30;;;12.20;;
16804;SDS011;8520;50.102;20.010;2023-02-28T08:18:42;13.40;;;12.20;;
16804;SDS011;8520;50.102;20.010;2023-02-28T08:21:11;12.87;;;11.87;;
16804;SDS011;8520;50.102;20.010;2023-02-28T08:23:39;11.83;;;10.87;;
16804;SDS011;8520;50.102;20.010;2023-02-28T08:26:07;15.27;;;10.83;;
16804;SDS011;8520;50.102;20.010;2023-02-28T08:28:35;10.33;;;9.33;;
16804;SDS011;8520;50.102;20.010;2023-02-28T08:31:06;10.03;;;9.13;;
16804;SDS011;8520;50.102;20.010;2023-02-28T08:33:35;9.40;;;8.50;;
16804;SDS011;8520;50.102;20.010;2023-02-28T08:36:05;9.00;;;8.30;;
16804;SDS011;8520;50.102;20.010;2023-02-28T08:38:36;8.73;;;7.93;;
16804;SDS011;8520;50.102;20.010;2023-02-28T08:41:05;8.93;;;8.00;;
16804;SDS011;8520;50.102;20.010;2023-02-28T08:43:35;8.53;;;7.83;;
16804;SDS011;8520;50.102;20.010;2023-02-28T08:46:04;8.60;;;7.80;;
16804;SDS011;8520;50.102;20.010;2023-02-28T08:48:34;9.47;;;8.57;;
16804;SDS011;8520;50.102;20.010;2023-02-28T08:51:05;8.53;;;7.73;;
16804;SDS011;8520;50.102;20.010;2023-02-28T08:53:39;7.73;;;7.10;;
16804;SDS011;8520;50.102;20.010;2023-02-28T08:56:08;8.37;;;7.67;;
16804;SDS011;8520;50.102;20.010;2023-02-28T08:58:38;7.17;;;6.63;;
16804;SDS011;8520;50.102;20.010;2023-02-28T09:01:08;7.70;;;7.00;;
16804;SDS011;8520;50.102;20.010;2023-02-28T09:03:38;7.90;;;7.07;;
16804;SDS011;8520;50.102;20.010;2023-02-28T09:06:08;11.60;;;8.20;;
16804;SDS011;8520;50.102;20.010;2023-02-28T09:08:39;8.43;;;7.67;;
16804;SDS011;8520;50.102;20.010;2023-02-28T09:11:08;7.80;;;6.97;;
16804;SDS011;8520;50.102;20.010;2023-02-28T09:13:36;7.80;;;7.10;;
16804;SDS011;8520;50.102;20.010;2023-02-28T09:16:08;8.47;;;7.67;;
16804;SDS011;8520;50.102;20.010;2023-02-28T09:18:38;8.33;;;7.63;;
16804;SDS011;8520;50.102;20.010;2023-02-28T09:21:08;8.30;;;7.70;;
16804;SDS011;8520;50.102;20.010;2023-02-28T09:23:41;7.43;;;6.87;;
16804;SDS011;8520;50.102;20.010;2023-02-28T09:26:13;7.90;;;7.30;;
16804;SDS011;8520;50.102;20.010;2023-02-28T09:28:41;7.90;;;7.30;;
16804;SDS011;8520;50.102;20.010;2023-02-28T09:31:11;7.77;;;7.00;;
16804;SDS011;8520;50.102;20.010;2023-02-28T09:33:41;7.40;;;6.80;;
16804;SDS011;8520;50.102;20.010;2023-02-28T09:36:09;8.17;;;7.57;;
16804;SDS011;8520;50.102;20.010;2023-02-28T09:38:37;8.40;;;7.67;;
16804;SDS011;8520;50.102;20.010;2023-02-28T09:41:11;9.33;;;8.30;;
16804;SDS011;8520;50.102;20.010;2023-02-28T09:43:43;9.93;;;9.03;;
16804;SDS011;8520;50.102;20.010;2023-02-28T09:46:27;9.00;;;8.20;;
16804;SDS011;8520;50.102;20.010;2023-02-28T09:48:59;9.10;;;8.40;;
16804;SDS011;8520;50.102;20.010;2023-02-28T09:51:33;9.37;;;8.57;;
16804;SDS011;8520;50.102;20.010;2023-02-28T09:54:09;9.53;;;8.63;;
16804;SDS011;8520;50.102;20.010;2023-02-28T09:56:47;10.10;;;9.20;;
16804;SDS011;8520;50.102;20.010;2023-02-28T09:59:24;11.13;;;9.50;;
16804;SDS011;8520;50.102;20.010;2023-02-28T10:02:04;9.77;;;8.80;;
16804;SDS011;8520;50.102;20.010;2023-02-28T10:04:42;9.23;;;8.53;;
16804;SDS011;8520;50.102;20.010;2023-02-28T10:07:22;9.53;;;8.63;;
16804;SDS011;8520;50.102;20.010;2023-02-28T10:10:07;9.97;;;9.17;;
16804;SDS011;8520;50.102;20.010;2023-02-28T10:12:49;10.13;;;9.10;;
16804;SDS011;8520;50.102;20.010;2023-02-28T10:15:21;10.77;;;9.83;;
16804;SDS011;8520;50.102;20.010;2023-02-28T10:17:54;10.10;;;9.30;;
16804;SDS011;8520;50.102;20.010;2023-02-28T10:20:34;10.40;;;9.43;;
16804;SDS011;8520;50.102;20.010;2023-02-28T10:23:07;10.00;;;9.10;;
16804;SDS011;8520;50.102;20.010;2023-02-28T10:25:40;8.57;;;7.77;;
16804;SDS011;8520;50.102;20.010;2023-02-28T10:28:16;8.67;;;7.93;;
16804;SDS011;8520;50.102;20.010;2023-02-28T10:30:46;8.63;;;7.90;;
16804;SDS011;8520;50.102;20.010;2023-02-28T10:33:17;9.40;;;8.47;;
16804;SDS011;8520;50.102;20.010;2023-02-28T10:35:49;9.23;;;8.43;;
16804;SDS011;8520;50.102;20.010;2023-02-28T10:38:18;9.00;;;8.30;;
16804;SDS011;8520;50.102;20.010;2023-02-28T10:40:47;8.10;;;7.37;;
16804;SDS011;8520;50.102;20.010;2023-02-28T10:43:21;8.03;;;7.20;;
16804;SDS011;8520;50.102;20.010;2023-02-28T10:45:56;7.73;;;6.93;;
16804;SDS011;8520;50.102;20.010;2023-02-28T10:48:31;7.87;;;7.07;;
16804;SDS011;8520;50.102;20.010;2023-02-28T10:51:01;8.27;;;7.57;;
16804;SDS011;8520;50.102;20.010;2023-02-28T10:53:33;8.17;;;7.43;;
16804;SDS011;8520;50.102;20.010;2023-02-28T10:56:24;8.83;;;8.03;;
16804;SDS011;8520;50.102;20.010;2023-02-28T10:58:56;8.50;;;7.80;;
16804;SDS011;8520;50.102;20.010;2023-02-28T11:01:33;8.37;;;7.67;;
16804;SDS011;8520;50.102;20.010;2023-02-28T11:04:16;7.60;;;7.10;;
16804;SDS011;8520;50.102;20.010;2023-02-28T11:06:48;9.43;;;8.60;;
16804;SDS011;8520;50.102;20.010;2023-02-28T11:09:27;9.30;;;8.30;;
16804;SDS011;8520;50.102;20.010;2023-02-28T11:11:58;9.37;;;8.57;;
16804;SDS011;8520;50.102;20.010;2023-02-28T11:14:28;9.53;;;8.40;;
16804;SDS011;8520;50.102;20.010;2023-02-28T11:17:03;8.90;;;8.10;;
16804;SDS011;8520;50.102;20.010;2023-02-28T11:19:44;11.53;;;8.80;;
16804;SDS011;8520;50.102;20.010;2023-02-28T11:22:16;9.03;;;8.33;;
16804;SDS011;8520;50.102;20.010;2023-02-28T11:24:48;9.83;;;8.93;;
16804;SDS011;8520;50.102;20.010;2023-02-28T11:27:39;8.73;;;7.93;;
16804;SDS011;8520;50.102;20.010;2023-02-28T11:30:25;9.00;;;8.30;;
16804;SDS011;8520;50.102;20.010;2023-02-28T11:33:11;8.97;;;8.10;;
16804;SDS011;8520;50.102;20.010;2023-02-28T11:35:49;8.50;;;7.80;;
16804;SDS011;8520;50.102;20.010;2023-02-28T11:38:18;10.13;;;8.50;;
16804;SDS011;8520;50.102;20.010;2023-02-28T11:40:48;8.70;;;8.10;;
16804;SDS011;8520;50.102;20.010;2023-02-28T11:43:30;8.80;;;8.10;;
16804;SDS011;8520;50.102;20.010;2023-02-28T11:46:14;8.97;;;8.13;;
16804;SDS011;8520;50.102;20.010;2023-02-28T11:48:52;9.30;;;8.37;;
16804;SDS011;8520;50.102;20.010;2023-02-28T11:51:27;8.77;;;7.87;;
16804;SDS011;8520;50.102;20.010;2023-02-28T11:56:53;7.77;;;7.17;;
16804;SDS011;8520;50.102;20.010;2023-02-28T11:59:35;8.70;;;7.90;;
16804;SDS011;8520;50.102;20.010;2023-02-28T12:02:23;9.00;;;8.10;;
16804;SDS011;8520;50.102;20.010;2023-02-28T12:05:08;8.97;;;7.70;;
16804;SDS011;8520;50.102;20.010;2023-02-28T12:07:48;8.57;;;7.90;;
16804;SDS011;8520;50.102;20.010;2023-02-28T12:10:23;8.70;;;7.90;;
16804;SDS011;8520;50.102;20.010;2023-02-28T12:12:58;8.47;;;7.77;;
16804;SDS011;8520;50.102;20.010;2023-02-28T12:15:45;8.20;;;7.50;;
16804;SDS011;8520;50.102;20.010;2023-02-28T12:18:50;8.03;;;7.30;;
16804;SDS011;8520;50.102;20.010;2023-02-28T12:21:33;7.67;;;6.97;;
16804;SDS011;8520;50.102;20.010;2023-02-28T12:24:20;7.90;;;7.30;;
16804;SDS011;8520;50.102;20.010;2023-02-28T12:27:05;7.70;;;7.10;;
16804;SDS011;8520;50.102;20.010;2023-02-28T12:29:39;8.40;;;7.80;;
16804;SDS011;8520;50.102;20.010;2023-02-28T12:32:15;7.88;;;7.30;;
16804;SDS011;8520;50.102;20.010;2023-02-28T12:34:50;8.65;;;7.70;;
16804;SDS011;8520;50.102;20.010;2023-02-28T12:37:24;8.75;;;7.45;;
16804;SDS011;8520;50.102;20.010;2023-02-28T12:39:56;7.50;;;6.97;;
16804;SDS011;8520;50.102;20.010;2023-02-28T12:42:32;8.45;;;7.63;;
16804;SDS011;8520;50.102;20.010;2023-02-28T12:45:08;7.70;;;7.10;;
16804;SDS011;8520;50.102;20.010;2023-02-28T12:47:40;7.50;;;6.90;;
16804;SDS011;8520;50.102;20.010;2023-02-28T12:50:13;7.68;;;7.18;;
16804;SDS011;8520;50.102;20.010;2023-02-28T12:52:46;8.18;;;6.97;;
16804;SDS011;8520;50.102;20.010;2023-02-28T12:55:21;8.95;;;7.35;;
16804;SDS011;8520;50.102;20.010;2023-02-28T12:57:57;8.23;;;7.63;;
16804;SDS011;8520;50.102;20.010;2023-02-28T13:00:36;7.97;;;7.28;;
16804;SDS011;8520;50.102;20.010;2023-02-28T13:03:19;8.07;;;7.57;;
16804;SDS011;8520;50.102;20.010;2023-02-28T13:06:22;10.00;;;8.10;;
16804;SDS011;8520;50.102;20.010;2023-02-28T13:09:09;8.18;;;7.57;;
16804;SDS011;8520;50.102;20.010;2023-02-28T13:11:39;8.18;;;7.57;;
16804;SDS011;8520;50.102;20.010;2023-02-28T13:14:19;9.98;;;8.32;;
16804;SDS011;8520;50.102;20.010;2023-02-28T13:16:55;9.05;;;8.30;;
16804;SDS011;8520;50.102;20.010;2023-02-28T13:19:26;8.70;;;7.90;;
16804;SDS011;8520;50.102;20.010;2023-02-28T13:21:58;9.50;;;8.50;;
16804;SDS011;8520;50.102;20.010;2023-02-28T13:30:00;8.82;;;8.13;;
16804;SDS011;8520;50.102;20.010;2023-02-28T13:32:30;8.73;;;7.93;;
16804;SDS011;8520;50.102;20.010;2023-02-28T13:35:12;8.90;;;8.02;;
16804;SDS011;8520;50.102;20.010;2023-02-28T13:37:44;8.85;;;8.25;;
16804;SDS011;8520;50.102;20.010;2023-02-28T13:40:30;8.63;;;7.97;;
16804;SDS011;8520;50.102;20.010;2023-02-28T13:43:06;8.27;;;7.47;;
16804;SDS011;8520;50.102;20.010;2023-02-28T13:45:36;10.23;;;8.10;;
16804;SDS011;8520;50.102;20.010;2023-02-28T13:48:15;8.43;;;7.72;;
16804;SDS011;8520;50.102;20.010;2023-02-28T13:50:45;8.73;;;7.82;;
16804;SDS011;8520;50.102;20.010;2023-02-28T13:56:27;8.07;;;7.35;;
16804;SDS011;8520;50.102;20.010;2023-02-28T13:59:14;11.18;;;8.52;;
16804;SDS011;8520;50.102;20.010;2023-02-28T14:02:02;10.10;;;9.10;;
16804;SDS011;8520;50.102;20.010;2023-02-28T14:04:53;9.55;;;8.75;;
16804;SDS011;8520;50.102;20.010;2023-02-28T14:07:29;9.65;;;8.75;;
16804;SDS011;8520;50.102;20.010;2023-02-28T14:10:04;9.80;;;9.00;;
16804;SDS011;8520;50.102;20.010;2023-02-28T14:12:58;9.27;;;8.45;;
16804;SDS011;8520;50.102;20.010;2023-02-28T14:15:41;9.50;;;8.60;;
16804;SDS011;8520;50.102;20.010;2023-02-28T14:18:19;9.10;;;8.30;;
16804;SDS011;8520;50.102;20.010;2023-02-28T14:20:54;8.90;;;8.20;;
16804;SDS011;8520;50.102;20.010;2023-02-28T14:26:29;9.23;;;8.43;;
16804;SDS011;8520;50.102;20.010;2023-02-28T14:29:24;9.40;;;8.63;;
16804;SDS011;8520;50.102;20.010;2023-02-28T14:32:06;9.93;;;8.93;;
16804;SDS011;8520;50.102;20.010;2023-02-28T14:34:43;9.93;;;9.03;;
16804;SDS011;8520;50.102;20.010;2023-02-28T14:37:19;9.30;;;8.60;;
16804;SDS011;8520;50.102;20.010;2023-02-28T14:39:52;9.90;;;9.10;;
16804;SDS011;8520;50.102;20.010;2023-02-28T14:42:30;9.93;;;9.13;;
16804;SDS011;8520;50.102;20.010;2023-02-28T14:45:00;9.50;;;8.70;;
16804;SDS011;8520;50.102;20.010;2023-02-28T14:47:30;9.87;;;9.10;;
16804;SDS011;8520;50.102;20.010;2023-02-28T14:50:00;12.23;;;9.53;;
16804;SDS011;8520;50.102;20.010;2023-02-28T14:52:32;10.50;;;9.57;;
16804;SDS011;8520;50.102;20.010;2023-02-28T14:55:01;10.43;;;9.50;;
16804;SDS011;8520;50.102;20.010;2023-02-28T14:57:38;10.40;;;9.50;;
16804;SDS011;8520;50.102;20.010;2023-02-28T15:00:11;9.67;;;8.97;;
16804;SDS011;8520;50.102;20.010;2023-02-28T15:02:43;10.37;;;9.47;;
16804;SDS011;8520;50.102;20.010;2023-02-28T15:08:09;11.90;;;10.80;;
16804;SDS011;8520;50.102;20.010;2023-02-28T15:10:40;10.80;;;9.70;;
16804;SDS011;8520;50.102;20.010;2023-02-28T15:13:13;10.73;;;9.77;;
16804;SDS011;8520;50.102;20.010;2023-02-28T15:15:43;11.30;;;10.30;;
16804;SDS011;8520;50.102;20.010;2023-02-28T15:18:31;10.13;;;9.23;;
16804;SDS011;8520;50.102;20.010;2023-02-28T15:21:13;10.83;;;9.93;;
16804;SDS011;8520;50.102;20.010;2023-02-28T15:23:45;11.03;;;10.23;;
16804;SDS011;8520;50.102;20.010;2023-02-28T15:26:19;10.20;;;9.40;;
16804;SDS011;8520;50.102;20.010;2023-02-28T15:28:51;10.90;;;10.00;;
16804;SDS011;8520;50.102;20.010;2023-02-28T15:31:26;10.73;;;9.87;;